Gulf Shores, AL

9:25 AM CDT on May 25, 2015 (GMT -0500)
Edwards | | Change Station
CLOSE
Current Station
Airport
Location: Gulf Shores,
Elevation: 16 ft
Nearby Weather Stations

Elev 16 ft 30.29 °N, 87.67 °W | Updated 10 minutes ago

Scattered Clouds
Scattered Clouds
80 °F
Feels Like 80 °F
N
13
Wind Variable Wind from SSE
Gusts 17 mph

Today
High -- | Low -- °F
--% Chance of Precip.
Yesterday
High -- | Low -- °F
Precip. -- in
5:51 AM 7:43 PM
Waxing Crescent, 49% visible
Pressure 30.14 in
Visibility 10.0 miles
Clouds Scattered Clouds 1700 ft
Dew Point 74 °F
Humidity 82%
Rainfall 0.00 in
Snow Depth Not available.
UV 5 out of 12
Pollen 4.50 out of 12
Air Quality Not available.
Flu Activity Sporadic
METAR KJKA 251415Z AUTO 15011G15KT 10SM SCT017 27/23 A3014 RMK AO2 LTG DSNT ALQS T02660233

More Conditions Fewer Conditions

Pressure 30.14 in
Visibility 10.0 miles
Clouds Scattered Clouds 1700 ft
Dew Point 74 °F
Humidity 82%
Rainfall 0.00 in
Snow Depth Not available.
UV 5 out of 12
Pollen 4.50 out of 12
Air Quality Not available.
Flu Activity Sporadic
METAR KJKA 251415Z AUTO 15011G15KT 10SM SCT017 27/23 A3014 RMK AO2 LTG DSNT ALQS T02660233

More Conditions Fewer Conditions

10-Day Weather Forecast

Almanac

Astronomy

May. 25, 2015 Rise Set
Actual Time
Civil Twilight
Nautical Twilight
Astronomical Twilight
Moon
Length of Visible Light
Length of Day
Tomorrow will be .
, % of the Moon is Illuminated

Today's Extremes

State Highs State Lows

Community

WunderPhotos

Upload Photos

1,824,025 photos uploaded!

WunderBlogs® & News

Nearby

Air Quality

  Air Quality AQ Index Pollutant
Not available.

Snow Depth

Station Depth Elevation

Earthquake Activity

City Distance Mag. Time & Date
Minimum magnitude displayed is 2.5.

Coastal Water Temperatures

Place Temperature

Stations

Nearby Weather Stations

Station Location Temp. Windchill Dew Point Humidity Wind Precip. Elev Updated Type